Time;durP1;ratioP1;P1;durP2;ratioP2;P2;SDS_P1;SDS_P2;PMS_P1;PMS_P2;Temp;Humidity;BMP_temperature;BMP_pressure;BME280_temperature;BME280_humidity;BME280_pressure;Samples;Min_cycle;Max_cycle;Signal;HPM_P1;HPM_P2
2023/03/13 00:00:58;;;;;;;27.55;6.00;;;;;;;7.73;100.00;100107.66;5076470;28;20032;-68
2023/03/13 00:03:24;;;;;;;31.48;6.80;;;;;;;7.72;100.00;100108.53;5076160;28;20062;-68
2023/03/13 00:05:54;;;;;;;28.63;6.28;;;;;;;7.75;100.00;100095.41;5076260;28;20402;-70
2023/03/13 00:08:20;;;;;;;29.92;6.32;;;;;;;7.74;100.00;100097.16;5076277;28;20471;-68
2023/03/13 00:10:45;;;;;;;31.30;7.18;;;;;;;7.76;100.00;100082.25;5075965;28;20113;-68
2023/03/13 00:13:10;;;;;;;28.50;6.57;;;;;;;7.78;100.00;100079.63;5076001;28;20029;-67
2023/03/13 00:15:36;;;;;;;27.73;6.55;;;;;;;7.80;100.00;100077.88;5076107;28;20051;-68
2023/03/13 00:18:01;;;;;;;29.88;6.57;;;;;;;7.85;100.00;100073.53;5076102;28;20459;-68
2023/03/13 00:20:26;;;;;;;29.60;7.15;;;;;;;7.82;100.00;100065.59;5076024;28;20111;-68
2023/03/13 00:22:52;;;;;;;30.13;6.75;;;;;;;7.81;100.00;100055.97;5075914;28;20036;-69
2023/03/13 00:25:17;;;;;;;30.65;6.65;;;;;;;7.76;100.00;100048.06;5075609;28;20083;-68
2023/03/13 00:27:42;;;;;;;31.83;7.38;;;;;;;7.81;100.00;100050.69;5076017;28;20028;-69
2023/03/13 00:30:08;;;;;;;28.67;7.20;;;;;;;7.79;100.00;100050.69;5075704;28;20031;-69
2023/03/13 00:32:40;;;;;;;30.85;7.07;;;;;;;7.81;100.00;100045.44;5075497;28;20110;-69
2023/03/13 00:35:06;;;;;;;27.53;6.73;;;;;;;7.78;100.00;100046.28;5072641;28;20352;-69
2023/03/13 00:37:31;;;;;;;31.63;7.47;;;;;;;7.77;100.00;100028.75;5075482;28;20035;-69
2023/03/13 00:39:56;;;;;;;30.88;6.60;;;;;;;7.83;100.00;100018.25;5075407;28;20029;-68
2023/03/13 00:42:21;;;;;;;30.15;7.03;;;;;;;7.79;100.00;100018.22;5074222;28;20028;-69
2023/03/13 00:44:47;;;;;;;30.08;6.63;;;;;;;7.87;100.00;100019.13;5075674;28;20028;-69
2023/03/13 00:47:12;;;;;;;27.55;6.88;;;;;;;7.82;100.00;100013.84;5075387;28;20028;-68
2023/03/13 00:49:37;;;;;;;31.98;7.82;;;;;;;7.84;100.00;100006.84;5075727;28;20037;-69
2023/03/13 00:52:03;;;;;;;32.80;7.53;;;;;;;7.84;100.00;99998.06;5075174;28;20062;-69
2023/03/13 00:54:28;;;;;;;29.67;7.05;;;;;;;7.85;100.00;99987.56;5074163;28;20029;-69
2023/03/13 00:56:54;;;;;;;31.15;7.35;;;;;;;7.88;100.00;99989.31;5075439;28;20542;-69
2023/03/13 00:59:19;;;;;;;30.83;7.57;;;;;;;7.90;100.00;99994.59;5075193;28;20102;-69
2023/03/13 01:01:44;;;;;;;30.48;7.95;;;;;;;7.97;100.00;99996.34;5079755;28;20041;-69
2023/03/13 01:04:11;;;;;;;29.60;7.15;;;;;;;8.00;100.00;99972.66;5078622;28;20071;-70
2023/03/13 01:06:39;;;;;;;32.85;8.00;;;;;;;7.98;100.00;99971.75;5081608;28;20035;-72
2023/03/13 01:09:05;;;;;;;28.90;7.95;;;;;;;7.99;100.00;99961.25;5078956;28;20031;-69
2023/03/13 01:11:34;;;;;;;31.00;8.63;;;;;;;8.01;100.00;99958.63;5074190;28;20032;-70
2023/03/13 01:14:02;;;;;;;30.77;8.68;;;;;;;8.09;100.00;99945.47;5077630;28;20446;-68
2023/03/13 01:16:30;;;;;;;32.13;8.88;;;;;;;8.11;100.00;99943.69;5077000;28;20033;-70
2023/03/13 01:18:59;;;;;;;30.70;8.75;;;;;;;8.17;100.00;99939.31;5076723;28;20483;-69
2023/03/13 01:21:25;;;;;;;27.48;8.80;;;;;;;8.19;100.00;99941.94;5075038;28;20074;-70
2023/03/13 01:23:52;;;;;;;29.75;9.73;;;;;;;8.20;100.00;99927.91;5074582;28;20025;-68
2023/03/13 01:26:18;;;;;;;30.50;8.80;;;;;;;8.24;100.00;99916.47;5074710;28;20036;-73
2023/03/13 01:28:44;;;;;;;30.67;9.00;;;;;;;8.24;100.00;99903.31;5074525;28;20063;-69
2023/03/13 01:31:11;;;;;;;28.45;9.30;;;;;;;8.33;100.00;99908.59;5074531;28;20086;-69
2023/03/13 01:33:36;;;;;;;31.23;9.38;;;;;;;8.39;100.00;99905.06;5074870;28;20032;-73
2023/03/13 01:36:03;;;;;;;28.17;8.48;;;;;;;8.48;100.00;99899.81;5074456;28;20028;-70
2023/03/13 01:38:28;;;;;;;27.33;9.07;;;;;;;8.55;100.00;99895.41;5074363;28;20021;-72
2023/03/13 01:40:54;;;;;;;29.67;8.43;;;;;;;8.54;100.00;99897.16;5074559;28;20025;-68
2023/03/13 01:43:22;;;;;;;25.42;8.18;;;;;;;8.61;100.00;99892.75;5074422;28;20024;-74
2023/03/13 01:46:04;;;;;;;27.63;8.52;;;;;;;8.64;100.00;99882.22;5074148;28;20070;-74
2023/03/13 01:48:47;;;;;;;26.52;8.25;;;;;;;8.69;100.00;99879.56;5074303;28;20028;-71
2023/03/13 01:51:39;;;;;;;26.83;7.97;;;;;;;8.71;100.00;99878.69;5071833;28;20137;-72
2023/03/13 01:54:15;;;;;;;24.92;7.47;;;;;;;8.81;100.00;99873.34;5070233;28;20052;-72
2023/03/13 01:57:08;;;;;;;27.45;7.50;;;;;;;8.83;100.00;99866.34;5071270;28;20087;-74
2023/03/13 01:59:43;;;;;;;24.83;6.82;;;;;;;8.80;100.00;99853.19;5062673;28;20426;-74
2023/03/13 02:02:08;;;;;;;23.33;6.95;;;;;;;8.89;100.00;99834.69;5066872;28;20099;-73
2023/03/13 02:04:37;;;;;;;23.20;6.80;;;;;;;8.96;100.00;99833.78;5073939;28;20440;-75
2023/03/13 02:07:13;;;;;;;24.63;6.95;;;;;;;9.02;100.00;99836.38;5069690;28;20091;-73
2023/03/13 02:09:41;;;;;;;24.88;6.82;;;;;;;9.03;100.00;99826.72;5070531;28;20433;-70
2023/03/13 02:12:10;;;;;;;22.92;6.43;;;;;;;9.05;100.00;99828.44;5073787;28;20028;-70
2023/03/13 02:14:39;;;;;;;23.75;6.82;;;;;;;9.07;100.00;99812.59;5065920;28;20099;-70
2023/03/13 02:17:06;;;;;;;22.83;6.13;;;;;;;9.06;100.00;99808.25;5069911;28;20024;-70
2023/03/13 02:19:50;;;;;;;21.75;6.75;;;;;;;9.16;100.00;99816.94;5069712;28;20059;-72
2023/03/13 02:22:53;;;;;;;21.63;6.70;;;;;;;9.16;100.00;99795.84;5071551;28;20044;-70
2023/03/13 02:25:24;;;;;;;22.13;7.13;;;;;;;9.23;100.00;99771.19;5071613;28;20078;-70
2023/03/13 02:28:16;;;;;;;23.27;6.80;;;;;;;9.24;100.00;99763.28;5073534;28;20117;-70
2023/03/13 02:30:43;;;;;;;23.17;7.72;;;;;;;9.22;100.00;99766.84;5066679;28;20028;-69
2023/03/13 02:33:10;;;;;;;22.23;7.30;;;;;;;9.28;100.00;99769.41;5073456;28;20036;-70
2023/03/13 02:35:35;;;;;;;22.27;7.72;;;;;;;9.30;100.00;99772.91;5073341;28;20039;-71
2023/03/13 02:38:05;;;;;;;22.13;7.22;;;;;;;9.33;100.00;99772.88;5073328;28;20107;-71
2023/03/13 02:40:36;;;;;;;22.83;7.50;;;;;;;9.39;100.00;99770.22;5073244;28;20029;-70
2023/03/13 02:43:09;;;;;;;22.00;7.45;;;;;;;9.37;100.00;99769.34;5073237;28;20025;-70
2023/03/13 02:45:35;;;;;;;21.45;7.38;;;;;;;9.43;100.00;99744.66;5069364;28;20082;-70
2023/03/13 02:48:00;;;;;;;23.83;8.00;;;;;;;9.49;100.00;99764.84;5073330;28;20414;-70
2023/03/13 02:50:26;;;;;;;21.05;7.80;;;;;;;9.49;100.00;99754.31;5073291;28;20434;-69
2023/03/13 02:52:59;;;;;;;22.83;7.72;;;;;;;9.58;100.00;99751.56;5072764;28;20107;-70
2023/03/13 02:55:29;;;;;;;23.30;8.55;;;;;;;9.57;100.00;99745.44;5073037;28;20109;-69
2023/03/13 02:57:55;;;;;;;23.25;8.27;;;;;;;9.58;100.00;99752.47;5072790;28;20174;-69
2023/03/13 03:00:25;;;;;;;22.63;8.55;;;;;;;9.56;100.00;99754.22;5073097;28;20482;-70
2023/03/13 03:02:50;;;;;;;21.98;8.77;;;;;;;9.64;100.00;99761.19;5072706;28;20086;-70
2023/03/13 03:05:16;;;;;;;22.85;8.10;;;;;;;9.71;100.00;99753.22;5073032;28;20391;-70
2023/03/13 03:07:41;;;;;;;23.48;8.80;;;;;;;9.71;100.00;99762.91;5072685;28;20036;-69
2023/03/13 03:10:07;;;;;;;22.45;8.55;;;;;;;9.74;100.00;99755.84;5072913;28;20032;-69
2023/03/13 03:12:32;;;;;;;22.52;8.65;;;;;;;9.83;100.00;99751.34;5064645;28;20602;-71
2023/03/13 03:14:58;;;;;;;23.88;9.73;;;;;;;9.79;100.00;99760.22;5072768;28;20082;-71
2023/03/13 03:17:23;;;;;;;22.77;9.00;;;;;;;9.76;100.00;99777.81;5072731;28;20455;-71
2023/03/13 03:19:49;;;;;;;22.05;8.75;;;;;;;9.83;100.00;99772.47;5072516;28;20028;-70
2023/03/13 03:22:14;;;;;;;22.50;9.00;;;;;;;9.84;100.00;99774.22;5072554;28;20117;-70
2023/03/13 03:24:39;;;;;;;23.13;9.20;;;;;;;9.88;100.00;99792.66;5072736;28;20028;-69
2023/03/13 03:27:05;;;;;;;22.23;9.27;;;;;;;9.89;100.00;99764.50;5071536;28;20020;-70
2023/03/13 03:29:30;;;;;;;21.67;8.60;;;;;;;9.91;100.00;99757.44;5072548;28;20036;-71
2023/03/13 03:31:55;;;;;;;23.15;9.13;;;;;;;9.92;100.00;99751.28;5072617;28;20052;-72
2023/03/13 03:34:21;;;;;;;21.75;8.43;;;;;;;9.96;100.00;99747.72;5072386;28;20093;-72
2023/03/13 03:36:46;;;;;;;21.90;8.98;;;;;;;9.99;100.00;99752.06;5072429;28;20052;-72
2023/03/13 03:39:12;;;;;;;21.63;8.88;;;;;;;9.95;100.00;99760.00;5072878;28;20086;-78
2023/03/13 03:41:37;;;;;;;22.83;8.63;;;;;;;10.03;100.00;99754.69;5072518;28;20028;-75
2023/03/13 03:44:04;;;;;;;22.48;9.07;;;;;;;10.09;100.00;99740.50;5072250;28;20395;-74
2023/03/13 03:46:29;;;;;;;21.23;9.10;;;;;;;10.08;100.00;99752.84;5072477;28;20045;-72
2023/03/13 03:48:55;;;;;;;22.30;9.38;;;;;;;10.06;100.00;99743.19;5072293;28;20060;-74
2023/03/13 03:51:21;;;;;;;21.67;9.23;;;;;;;10.17;100.00;99743.09;5072508;28;20050;-72
2023/03/13 03:53:46;;;;;;;22.55;9.30;;;;;;;10.15;100.00;99747.50;5071054;28;20478;-77
2023/03/13 03:56:12;;;;;;;22.13;9.60;;;;;;;10.13;100.00;99742.22;5072322;28;20058;-73
2023/03/13 03:58:37;;;;;;;23.55;9.55;;;;;;;10.11;100.00;99741.38;5072380;28;20044;-80
2023/03/13 04:01:03;;;;;;;24.27;10.77;;;;;;;10.17;100.00;99745.72;5068104;28;20048;-74
2023/03/13 04:03:29;;;;;;;23.02;9.98;;;;;;;10.18;100.00;99747.44;5072450;28;20036;-72
2023/03/13 04:05:54;;;;;;;23.10;10.57;;;;;;;10.20;100.00;99754.47;5072178;28;20493;-72
2023/03/13 04:08:20;;;;;;;23.13;10.60;;;;;;;10.21;100.00;99736.88;5072122;28;20032;-74
2023/03/13 04:10:45;;;;;;;23.00;10.90;;;;;;;10.26;100.00;99737.69;5072284;28;20391;-74
2023/03/13 04:13:11;;;;;;;23.02;9.88;;;;;;;10.29;100.00;99724.44;5072374;28;20060;-74
2023/03/13 04:15:38;;;;;;;23.90;10.70;;;;;;;10.34;100.00;99727.94;5071998;28;20032;-75
2023/03/13 04:18:03;;;;;;;24.17;10.60;;;;;;;10.33;100.00;99741.13;5067886;28;20104;-71
2023/03/13 04:20:29;;;;;;;24.20;9.95;;;;;;;10.31;100.00;99733.22;5072226;28;20123;-73
2023/03/13 04:22:54;;;;;;;22.42;10.00;;;;;;;10.37;100.00;99677.69;5071984;28;20387;-70
2023/03/13 04:25:20;;;;;;;23.35;10.43;;;;;;;10.40;100.00;99703.22;5071962;28;20033;-70
2023/03/13 04:27:45;;;;;;;22.10;9.90;;;;;;;10.38;100.00;99692.66;5072096;28;20379;-70
2023/03/13 04:30:11;;;;;;;21.25;9.38;;;;;;;10.45;100.00;99696.09;5073165;28;20029;-70
2023/03/13 04:32:37;;;;;;;21.67;8.77;;;;;;;10.50;100.00;99680.16;5075478;28;20060;-70
2023/03/13 04:35:02;;;;;;;21.20;8.38;;;;;;;10.49;100.00;99689.88;5075626;28;20490;-70
2023/03/13 04:37:28;;;;;;;21.00;8.40;;;;;;;10.57;100.00;99689.75;5075395;28;20029;-76
2023/03/13 04:39:53;;;;;;;21.77;8.57;;;;;;;10.52;100.00;99670.47;5075646;28;20036;-73
2023/03/13 04:42:18;;;;;;;21.48;8.40;;;;;;;10.50;100.00;99667.84;5075343;28;20154;-74
2023/03/13 04:44:44;;;;;;;21.15;7.80;;;;;;;10.52;100.00;99673.09;5075286;28;20021;-72
2023/03/13 04:47:09;;;;;;;22.05;8.35;;;;;;;10.54;100.00;99671.31;5075475;28;20033;-76
2023/03/13 04:49:34;;;;;;;21.00;8.05;;;;;;;10.54;100.00;99658.09;5075215;28;20033;-73
2023/03/13 04:52:00;;;;;;;20.52;7.88;;;;;;;10.57;100.00;99660.69;5075140;28;20552;-76
2023/03/13 04:54:25;;;;;;;21.27;7.38;;;;;;;10.57;100.00;99658.03;5075330;28;20025;-73
2023/03/13 04:56:51;;;;;;;20.63;7.30;;;;;;;10.66;100.00;99665.84;5075112;28;20086;-73
2023/03/13 04:59:16;;;;;;;20.30;7.30;;;;;;;10.68;100.00;99653.47;5074965;28;20522;-77
2023/03/13 05:01:42;;;;;;;19.88;6.65;;;;;;;10.73;100.00;99659.59;5075174;28;20375;-71
2023/03/13 05:04:09;;;;;;;19.65;6.60;;;;;;;10.80;100.00;99657.69;5075146;28;20158;-72
2023/03/13 05:06:34;;;;;;;18.63;6.13;;;;;;;10.89;100.00;99651.41;5070938;28;20426;-73
2023/03/13 05:09:00;;;;;;;17.67;5.72;;;;;;;10.86;100.00;99630.31;5075125;28;20078;-73
2023/03/13 05:11:26;;;;;;;19.58;6.03;;;;;;;10.90;100.00;99626.72;5075122;28;20028;-73
2023/03/13 05:13:51;;;;;;;19.83;5.80;;;;;;;10.90;100.00;99637.28;5074737;28;20056;-70
2023/03/13 05:16:16;;;;;;;18.27;6.03;;;;;;;10.92;100.00;99632.84;5074930;28;20025;-74
2023/03/13 05:18:42;;;;;;;16.80;5.40;;;;;;;11.04;100.00;99647.63;5074907;28;20036;-76
2023/03/13 05:21:08;;;;;;;19.92;5.65;;;;;;;11.04;100.00;99645.88;5074999;28;20116;-77
2023/03/13 05:23:33;;;;;;;18.30;5.45;;;;;;;11.08;100.00;99630.81;5070555;28;20541;-73
2023/03/13 05:25:59;;;;;;;18.33;5.43;;;;;;;11.13;100.00;99629.84;5074746;28;20024;-72
2023/03/13 05:28:25;;;;;;;17.70;5.38;;;;;;;11.09;100.00;99617.56;5074649;28;20502;-73
2023/03/13 05:30:50;;;;;;;18.77;5.45;;;;;;;11.19;100.00;99618.28;5074770;28;20074;-73
2023/03/13 05:33:18;;;;;;;18.02;5.15;;;;;;;11.15;100.00;99628.06;5074340;28;20111;-72
2023/03/13 05:35:44;;;;;;;19.08;5.20;;;;;;;11.21;100.00;99621.75;5073387;28;20365;-73
2023/03/13 05:38:09;;;;;;;17.23;4.90;;;;;;;11.13;100.00;99629.84;5074455;28;20035;-75
2023/03/13 05:40:34;;;;;;;18.38;5.38;;;;;;;11.25;100.00;99627.88;5073832;28;20029;-69
2023/03/13 05:43:00;;;;;;;18.48;4.78;;;;;;;11.20;100.00;99638.56;5074710;28;20062;-71
2023/03/13 05:45:25;;;;;;;18.13;5.07;;;;;;;11.27;100.00;99626.06;5074310;28;20024;-71
2023/03/13 05:47:51;;;;;;;19.27;5.32;;;;;;;11.27;100.00;99621.69;5074603;28;20082;-71
2023/03/13 05:50:16;;;;;;;19.25;5.20;;;;;;;11.29;100.00;99625.16;5074502;28;20021;-71
2023/03/13 05:52:42;;;;;;;16.88;4.65;;;;;;;11.36;100.00;99619.75;5073938;28;20498;-70
2023/03/13 05:55:07;;;;;;;17.77;4.80;;;;;;;11.37;100.00;99627.66;5074122;28;20031;-71
2023/03/13 05:57:32;;;;;;;18.73;4.80;;;;;;;11.38;100.00;99631.19;5074394;28;20052;-71
2023/03/13 05:59:58;;;;;;;18.55;4.65;;;;;;;11.40;100.00;99626.72;5074151;28;20059;-70
2023/03/13 06:02:24;;;;;;;17.80;4.78;;;;;;;11.39;100.00;99625.88;5074030;28;20487;-70
2023/03/13 06:04:49;;;;;;;16.60;4.50;;;;;;;11.33;100.00;99623.34;5073772;28;20360;-72
2023/03/13 06:07:15;;;;;;;16.90;4.50;;;;;;;11.38;100.00;99640.00;5073881;28;20071;-72
2023/03/13 06:09:40;;;;;;;17.05;4.40;;;;;;;11.42;100.00;99631.09;5074078;28;20037;-71
2023/03/13 06:12:10;;;;;;;16.58;4.20;;;;;;;11.46;100.00;99627.50;5073615;28;20031;-72
2023/03/13 06:14:36;;;;;;;16.20;4.43;;;;;;;11.56;100.00;99632.63;5069643;28;20533;-72
2023/03/13 06:17:02;;;;;;;17.17;4.43;;;;;;;11.48;100.00;99620.41;5074005;28;20035;-71
2023/03/13 06:19:28;;;;;;;18.63;4.82;;;;;;;11.42;100.00;99617.00;5073475;28;20475;-71
2023/03/13 06:21:53;;;;;;;16.55;4.50;;;;;;;11.40;100.00;99617.03;5073457;28;20036;-70
2023/03/13 06:24:18;;;;;;;18.17;5.10;;;;;;;11.35;100.00;99603.00;5073834;28;20039;-70
2023/03/13 06:26:44;;;;;;;18.75;4.70;;;;;;;11.39;100.00;99620.56;5073691;28;20107;-71
2023/03/13 06:29:10;;;;;;;19.30;4.57;;;;;;;11.49;100.00;99614.22;5074056;28;20028;-72
2023/03/13 06:31:35;;;;;;;16.95;4.55;;;;;;;11.60;100.00;99619.28;5069548;28;20119;-71
2023/03/13 06:34:01;;;;;;;17.50;4.30;;;;;;;11.55;100.00;99600.00;5073751;28;20453;-71
2023/03/13 06:36:26;;;;;;;18.40;4.97;;;;;;;11.66;100.00;99605.94;5074132;28;20113;-71
2023/03/13 06:38:52;;;;;;;16.77;4.10;;;;;;;11.67;100.00;99612.97;5074126;28;20375;-72
2023/03/13 06:41:17;;;;;;;18.98;4.95;;;;;;;11.61;100.00;99591.91;5074005;28;20425;-71
2023/03/13 06:43:43;;;;;;;19.02;4.30;;;;;;;11.75;100.00;99599.59;5073109;28;20028;-70
2023/03/13 06:46:21;;;;;;;16.35;4.25;;;;;;;11.99;100.00;99594.72;5065358;28;20055;-79
2023/03/13 06:48:47;;;;;;;17.00;4.55;;;;;;;11.97;100.00;99609.75;5066021;28;20472;-77
2023/03/13 06:51:14;;;;;;;17.48;3.90;;;;;;;12.10;100.00;99603.31;5072282;28;20031;-77
2023/03/13 06:53:39;;;;;;;18.42;4.50;;;;;;;12.18;100.00;99624.34;5066291;28;20472;-80
2023/03/13 06:56:06;;;;;;;16.05;4.32;;;;;;;12.15;100.00;99601.44;5066175;28;20091;-78
2023/03/13 06:58:31;;;;;;;15.45;3.90;;;;;;;12.26;100.00;99584.41;5070433;28;20044;-78
2023/03/13 07:00:57;;;;;;;16.73;4.00;;;;;;;12.24;100.00;99604.78;5071555;28;20025;-80
2023/03/13 07:03:23;;;;;;;18.10;4.35;;;;;;;12.22;100.00;99594.22;5070180;28;20044;-77
2023/03/13 07:05:54;;;;;;;15.90;4.07;;;;;;;12.28;100.00;99603.81;5069005;28;20029;-77
2023/03/13 07:08:20;;;;;;;19.25;4.10;;;;;;;12.30;100.00;99604.66;5068583;28;20037;-80
2023/03/13 07:10:47;;;;;;;16.33;3.80;;;;;;;12.35;100.00;99606.28;5066992;28;20028;-79
2023/03/13 07:13:12;;;;;;;15.65;4.18;;;;;;;12.40;100.00;99606.19;5066351;28;20033;-76
2023/03/13 07:15:38;;;;;;;17.15;3.97;;;;;;;12.37;100.00;99595.66;5068555;28;20025;-77
2023/03/13 07:18:03;;;;;;;17.95;4.22;;;;;;;12.37;100.00;99599.16;5070030;28;20369;-77
2023/03/13 07:20:28;;;;;;;14.48;3.80;;;;;;;12.41;100.00;99605.28;5072109;28;20391;-78
2023/03/13 07:22:54;;;;;;;17.60;4.00;;;;;;;12.43;100.00;99595.50;5067202;28;20036;-75
2023/03/13 07:25:19;;;;;;;15.63;4.15;;;;;;;12.45;100.00;99593.72;5063328;28;20062;-78
2023/03/13 07:27:44;;;;;;;16.92;4.15;;;;;;;12.51;100.00;99592.69;5068177;28;20025;-77
2023/03/13 07:30:10;;;;;;;19.98;4.20;;;;;;;12.50;100.00;99583.84;5071946;28;20463;-76
2023/03/13 07:32:35;;;;;;;16.45;4.00;;;;;;;12.51;100.00;99582.09;5064695;28;20033;-78
2023/03/13 07:35:03;;;;;;;18.65;4.28;;;;;;;12.50;100.00;99586.50;5064100;28;20029;-75
2023/03/13 07:37:29;;;;;;;18.75;4.00;;;;;;;12.57;100.00;99587.25;5070158;28;20043;-76
2023/03/13 07:39:54;;;;;;;18.55;4.03;;;;;;;12.63;100.00;99596.84;5063363;28;20033;-78
2023/03/13 07:42:20;;;;;;;17.77;4.10;;;;;;;12.66;100.00;99597.63;5074531;28;20103;-77
2023/03/13 07:44:45;;;;;;;17.08;4.00;;;;;;;12.71;100.00;99605.44;5068995;28;20029;-77
2023/03/13 07:47:10;;;;;;;18.15;4.10;;;;;;;12.69;100.00;99596.69;5067885;28;20116;-80
2023/03/13 07:49:40;;;;;;;17.42;4.22;;;;;;;12.70;100.00;99599.28;5074610;28;20107;-79
2023/03/13 07:52:05;;;;;;;19.38;4.40;;;;;;;12.67;100.00;99606.47;5069929;28;20028;-75
2023/03/13 07:54:31;;;;;;;17.58;4.00;;;;;;;12.56;100.00;99607.56;5067579;28;20498;-75
2023/03/13 07:56:56;;;;;;;18.33;4.00;;;;;;;12.52;100.00;99590.00;5067586;28;20033;-74
2023/03/13 07:59:21;;;;;;;17.98;4.00;;;;;;;12.55;100.00;99605.84;5069408;28;20043;-72
2023/03/13 08:01:47;;;;;;;17.17;4.25;;;;;;;12.52;100.00;99595.31;5066004;28;20064;-72
2023/03/13 08:04:13;;;;;;;17.60;4.05;;;;;;;12.54;100.00;99590.84;5074642;28;20071;-72
2023/03/13 08:06:39;;;;;;;17.20;4.28;;;;;;;12.75;100.00;99596.53;5074330;28;20021;-71
2023/03/13 08:09:05;;;;;;;16.70;4.00;;;;;;;12.87;100.00;99598.88;5070385;28;20029;-75
2023/03/13 08:11:30;;;;;;;16.15;4.20;;;;;;;12.93;100.00;99589.91;5064708;28;20059;-71
2023/03/13 08:13:56;;;;;;;18.05;4.10;;;;;;;12.96;100.00;99581.88;5073588;28;20124;-72
2023/03/13 08:16:32;;;;;;;17.35;4.13;;;;;;;13.00;100.00;99582.66;5074489;28;20103;-72
2023/03/13 08:18:58;;;;;;;17.30;3.97;;;;;;;13.03;100.00;99577.25;5073697;28;20027;-74
2023/03/13 08:21:26;;;;;;;16.30;3.97;;;;;;;13.06;100.00;99591.34;5072813;28;20115;-75
2023/03/13 08:23:54;;;;;;;17.33;3.95;;;;;;;13.05;100.00;99583.41;5069761;28;20020;-74
2023/03/13 08:26:21;;;;;;;16.52;4.00;;;;;;;12.98;100.00;99573.88;5075601;28;20024;-74
2023/03/13 08:28:51;;;;;;;16.35;3.80;;;;;;;12.92;100.00;99572.25;5073880;28;20034;-74
2023/03/13 08:31:21;;;;;;;17.70;3.90;;;;;;;13.02;100.00;99581.72;5067714;28;20033;-74
2023/03/13 08:33:47;;;;;;;16.30;4.03;;;;;;;13.12;100.00;99584.13;5075311;28;20025;-74
2023/03/13 08:36:16;;;;;;;15.95;3.70;;;;;;;13.15;100.00;99579.63;5071618;28;20024;-74
2023/03/13 08:38:43;;;;;;;16.05;3.60;;;;;;;13.20;100.00;99588.31;5070729;28;20025;-74
2023/03/13 08:41:09;;;;;;;16.17;3.45;;;;;;;13.29;100.00;99562.44;5072375;28;20493;-74
2023/03/13 08:43:34;;;;;;;18.27;4.05;;;;;;;13.32;100.00;99571.19;5075039;28;20099;-74
2023/03/13 08:45:59;;;;;;;15.98;3.58;;;;;;;13.40;100.00;99582.50;5073279;28;20039;-74
2023/03/13 08:48:25;;;;;;;16.05;3.80;;;;;;;13.48;100.00;99561.03;5075351;28;20044;-74
2023/03/13 08:51:09;;;;;;;14.95;3.60;;;;;;;13.48;100.00;99573.47;5075483;28;20029;-74
2023/03/13 08:53:35;;;;;;;14.30;3.30;;;;;;;13.56;100.00;99590.91;5067533;28;20036;-74
2023/03/13 08:56:01;;;;;;;15.45;3.58;;;;;;;13.51;100.00;99590.16;5071852;28;20071;-71
2023/03/13 08:58:27;;;;;;;14.10;3.20;;;;;;;13.52;100.00;99575.97;5075705;28;20101;-74
2023/03/13 09:00:53;;;;;;;14.50;3.30;;;;;;;13.55;100.00;99581.19;5076087;28;20056;-75
2023/03/13 09:03:18;;;;;;;14.82;3.15;;;;;;;13.65;100.00;99559.72;5075974;28;20040;-74
2023/03/13 09:05:46;;;;;;;12.63;3.10;;;;;;;13.61;100.00;99548.31;5075699;28;20029;-74
2023/03/13 09:08:12;;;;;;;13.75;3.22;;;;;;;13.59;100.00;99563.41;5075307;28;20111;-74
2023/03/13 09:10:37;;;;;;;14.35;3.30;;;;;;;13.55;100.00;99551.13;5075539;28;20035;-74
2023/03/13 09:13:03;;;;;;;13.88;3.38;;;;;;;13.53;100.00;99574.22;5075756;28;20028;-74
2023/03/13 09:15:28;;;;;;;16.38;3.42;;;;;;;13.56;100.00;99548.44;5075623;28;20079;-74
2023/03/13 09:17:54;;;;;;;15.65;3.60;;;;;;;13.70;100.00;99539.19;5075431;28;20031;-75
2023/03/13 09:20:20;;;;;;;14.02;3.30;;;;;;;13.85;100.00;99541.41;5075074;28;20025;-74
2023/03/13 09:22:45;;;;;;;15.82;3.60;;;;;;;14.02;100.00;99524.09;5075245;28;20032;-74
2023/03/13 09:25:12;;;;;;;17.38;3.80;;;;;;;14.23;100.00;99534.06;5075217;28;20040;-74
2023/03/13 09:27:37;;;;;;;13.10;3.50;;;;;;;14.43;100.00;99530.75;5075608;28;20123;-73
2023/03/13 09:30:03;;;;;;;16.35;3.60;;;;;;;14.72;100.00;99525.44;5075390;28;20052;-75
2023/03/13 09:32:28;;;;;;;14.43;3.47;;;;;;;14.95;100.00;99528.16;5069362;28;20040;-78
2023/03/13 09:34:54;;;;;;;16.77;3.55;;;;;;;15.06;100.00;99510.97;5071556;28;20080;-76
2023/03/13 09:37:20;;;;;;;15.13;3.75;;;;;;;15.24;100.00;99501.47;5065638;28;20524;-75
2023/03/13 09:39:47;;;;;;;13.20;3.40;;;;;;;15.46;100.00;99517.50;5069901;28;20078;-79
2023/03/13 09:42:34;;;;;;;13.75;3.40;;;;;;;15.61;100.00;99471.69;5068478;28;20489;-79
2023/03/13 09:45:07;;;;;;;14.70;3.40;;;;;;;15.80;100.00;99478.97;5070252;28;20035;-76
2023/03/13 09:47:53;;;;;;;11.75;3.08;;;;;;;15.88;100.00;99495.53;5067129;28;20025;-81
2023/03/13 09:50:45;;;;;;;13.82;2.83;;;;;;;16.03;100.00;99494.94;5065191;28;20025;-77
2023/03/13 09:53:28;;;;;;;14.73;3.20;;;;;;;15.60;100.00;99495.72;5068670;28;20112;-80
2023/03/13 09:55:54;;;;;;;11.75;3.08;;;;;;;15.45;100.00;99484.72;5069650;28;20048;-77
2023/03/13 09:58:27;;;;;;;13.38;3.05;;;;;;;15.21;100.00;99491.78;5063500;28;20049;-80
2023/03/13 10:00:56;;;;;;;11.88;3.00;;;;;;;15.21;100.00;99475.81;5068260;28;20024;-78
2023/03/13 10:03:48;;;;;;;12.13;2.90;;;;;;;15.28;100.00;99477.34;5067808;28;20055;-77
2023/03/13 10:06:18;;;;;;;10.45;2.90;;;;;;;15.28;100.00;99509.28;5064097;28;20031;-84
2023/03/13 10:08:44;;;;;;;11.50;3.13;;;;;;;15.22;100.00;99505.94;5067373;28;20039;-79
2023/03/13 10:11:37;;;;;;;13.18;3.10;;;;;;;15.66;100.00;99482.16;5068219;28;20024;-81
2023/03/13 10:14:21;;;;;;;9.23;2.75;;;;;;;15.60;100.00;99466.41;5067448;28;20139;-82
2023/03/13 10:16:58;;;;;;;10.48;2.90;;;;;;;15.88;100.00;99471.56;5070134;28;20111;-81
2023/03/13 10:19:33;;;;;;;9.07;2.50;;;;;;;15.95;100.00;99466.88;5067857;28;20094;-81
2023/03/13 10:22:02;;;;;;;10.05;2.70;;;;;;;15.73;100.00;99478.34;5076198;28;20048;-81
2023/03/13 10:24:43;;;;;;;10.93;2.80;;;;;;;15.56;100.00;99465.66;5071465;28;20102;-83
2023/03/13 10:27:12;;;;;;;10.32;2.90;;;;;;;15.51;100.00;99470.28;5067734;28;20478;-84
2023/03/13 10:29:38;;;;;;;12.02;2.88;;;;;;;15.63;100.00;99477.81;5066746;28;20036;-78
2023/03/13 10:32:06;;;;;;;12.25;3.00;;;;;;;15.33;100.00;99447.88;5082095;28;20063;-79
2023/03/13 10:34:50;;;;;;;7.57;2.80;;;;;;;15.37;100.00;99453.97;5069088;28;20501;-79
2023/03/13 10:37:20;;;;;;;9.75;2.80;;;;;;;15.27;100.00;99482.72;5068898;28;20035;-78
2023/03/13 10:39:46;;;;;;;11.23;2.67;;;;;;;15.56;100.00;99444.34;5062711;28;20025;-82
2023/03/13 10:42:27;;;;;;;8.55;2.60;;;;;;;15.95;100.00;99445.56;5073952;28;20035;-78
2023/03/13 10:45:02;;;;;;;12.10;2.90;;;;;;;15.82;100.00;99458.50;5065907;28;20131;-79
2023/03/13 10:47:32;;;;;;;10.13;2.80;;;;;;;15.65;100.00;99427.13;5071223;28;20024;-82
2023/03/13 10:49:58;;;;;;;10.50;2.75;;;;;;;15.47;100.00;99434.91;5064096;28;20476;-79
2023/03/13 10:52:42;;;;;;;8.45;2.67;;;;;;;15.59;100.00;99438.88;5068463;28;20062;-83
2023/03/13 10:55:19;;;;;;;9.77;2.80;;;;;;;15.51;100.00;99439.19;5068480;28;20422;-89
2023/03/13 10:57:58;;;;;;;11.32;2.70;;;;;;;15.54;100.00;99406.25;5063802;28;20029;-79
2023/03/13 11:00:38;;;;;;;9.13;2.80;;;;;;;15.63;100.00;99440.50;5063937;28;20440;-80
2023/03/13 11:03:17;;;;;;;10.65;2.80;;;;;;;15.73;100.00;99440.16;5075441;28;20032;-84
2023/03/13 11:05:43;;;;;;;10.15;2.80;;;;;;;15.63;100.00;99408.56;5071388;28;20121;-80
2023/03/13 11:08:15;;;;;;;10.50;2.90;;;;;;;15.57;100.00;99418.59;5064367;28;20387;-74
2023/03/13 11:10:53;;;;;;;10.57;2.63;;;;;;;15.64;100.00;99425.38;5072043;28;20040;-80
2023/03/13 11:13:38;;;;;;;10.20;2.60;;;;;;;15.58;100.00;99417.66;5067301;28;20025;-80
2023/03/13 11:16:25;;;;;;;8.90;2.75;;;;;;;15.56;100.00;99416.84;5066885;28;20021;-80
2023/03/13 11:19:06;;;;;;;7.38;2.63;;;;;;;15.74;100.00;99416.13;5068947;28;20073;-77
2023/03/13 11:22:13;;;;;;;5.90;2.30;;;;;;;15.88;100.00;99407.63;5068365;28;20029;-75
2023/03/13 11:25:02;;;;;;;9.35;2.70;;;;;;;16.14;100.00;99397.69;5010313;28;20033;-77